sensor_id;sensor_type;location;lat;lon;timestamp;temperature;humidity
23471;DHT22;11908;50.806;4.424;2024-02-14T00:00:57;9.20;99.90
23471;DHT22;11908;50.806;4.424;2024-02-14T00:03:23;9.20;99.90
23471;DHT22;11908;50.806;4.424;2024-02-14T00:05:49;9.30;99.90
23471;DHT22;11908;50.806;4.424;2024-02-14T00:08:15;9.20;99.90
23471;DHT22;11908;50.806;4.424;2024-02-14T00:10:41;9.20;99.90
23471;DHT22;11908;50.806;4.424;2024-02-14T00:13:08;9.20;99.90
23471;DHT22;11908;50.806;4.424;2024-02-14T00:15:35;9.30;99.90
23471;DHT22;11908;50.806;4.424;2024-02-14T00:18:00;9.30;99.90
23471;DHT22;11908;50.806;4.424;2024-02-14T00:20:26;9.30;99.90
23471;DHT22;11908;50.806;4.424;2024-02-14T00:22:52;9.30;99.90
23471;DHT22;11908;50.806;4.424;2024-02-14T00:25:17;9.30;99.90
23471;DHT22;11908;50.806;4.424;2024-02-14T00:27:46;9.40;99.90
23471;DHT22;11908;50.806;4.424;2024-02-14T00:30:12;9.50;99.90
23471;DHT22;11908;50.806;4.424;2024-02-14T00:32:37;9.50;99.90
23471;DHT22;11908;50.806;4.424;2024-02-14T00:35:04;9.40;99.90
23471;DHT22;11908;50.806;4.424;2024-02-14T00:37:29;9.40;99.90
23471;DHT22;11908;50.806;4.424;2024-02-14T00:39:55;9.40;99.90
23471;DHT22;11908;50.806;4.424;2024-02-14T00:42:22;9.40;99.90
23471;DHT22;11908;50.806;4.424;2024-02-14T00:44:48;9.40;99.90
23471;DHT22;11908;50.806;4.424;2024-02-14T00:47:14;9.40;99.90
23471;DHT22;11908;50.806;4.424;2024-02-14T00:49:39;9.40;99.90
23471;DHT22;11908;50.806;4.424;2024-02-14T00:52:05;9.40;99.90
23471;DHT22;11908;50.806;4.424;2024-02-14T00:54:32;9.40;99.90
23471;DHT22;11908;50.806;4.424;2024-02-14T00:56:57;9.50;99.90
23471;DHT22;11908;50.806;4.424;2024-02-14T00:59:23;9.50;99.90
23471;DHT22;11908;50.806;4.424;2024-02-14T01:01:50;9.50;99.90
23471;DHT22;11908;50.806;4.424;2024-02-14T01:04:16;9.50;99.90
23471;DHT22;11908;50.806;4.424;2024-02-14T01:06:42;9.50;99.90
23471;DHT22;11908;50.806;4.424;2024-02-14T01:09:07;9.50;99.90
23471;DHT22;11908;50.806;4.424;2024-02-14T01:11:34;9.50;99.90
23471;DHT22;11908;50.806;4.424;2024-02-14T01:13:59;9.60;99.90
23471;DHT22;11908;50.806;4.424;2024-02-14T01:16:25;9.60;99.90
23471;DHT22;11908;50.806;4.424;2024-02-14T01:18:51;9.80;99.90
23471;DHT22;11908;50.806;4.424;2024-02-14T01:21:17;9.70;99.90
23471;DHT22;11908;50.806;4.424;2024-02-14T01:23:43;9.60;99.90
23471;DHT22;11908;50.806;4.424;2024-02-14T01:26:08;9.60;99.90
23471;DHT22;11908;50.806;4.424;2024-02-14T01:28:34;9.60;99.90
23471;DHT22;11908;50.806;4.424;2024-02-14T01:30:59;9.60;99.90
23471;DHT22;11908;50.806;4.424;2024-02-14T01:33:25;9.60;99.90
23471;DHT22;11908;50.806;4.424;2024-02-14T01:35:51;9.60;99.90
23471;DHT22;11908;50.806;4.424;2024-02-14T01:38:17;9.50;99.90
23471;DHT22;11908;50.806;4.424;2024-02-14T01:40:43;9.50;99.90
23471;DHT22;11908;50.806;4.424;2024-02-14T01:43:10;9.50;99.90
23471;DHT22;11908;50.806;4.424;2024-02-14T01:45:37;9.50;99.90
23471;DHT22;11908;50.806;4.424;2024-02-14T01:48:04;9.50;99.90
23471;DHT22;11908;50.806;4.424;2024-02-14T01:50:32;9.50;99.90
23471;DHT22;11908;50.806;4.424;2024-02-14T01:52:58;9.50;99.90
23471;DHT22;11908;50.806;4.424;2024-02-14T01:55:26;9.60;99.90
23471;DHT22;11908;50.806;4.424;2024-02-14T01:57:54;9.60;99.90
23471;DHT22;11908;50.806;4.424;2024-02-14T02:00:20;9.60;99.90
23471;DHT22;11908;50.806;4.424;2024-02-14T02:02:46;9.60;99.90
23471;DHT22;11908;50.806;4.424;2024-02-14T02:05:15;9.70;99.90
23471;DHT22;11908;50.806;4.424;2024-02-14T02:07:41;9.70;99.90
23471;DHT22;11908;50.806;4.424;2024-02-14T02:10:12;9.70;99.90
23471;DHT22;11908;50.806;4.424;2024-02-14T02:12:37;9.70;99.90
23471;DHT22;11908;50.806;4.424;2024-02-14T02:15:07;9.70;99.90
23471;DHT22;11908;50.806;4.424;2024-02-14T02:17:36;9.80;99.90
23471;DHT22;11908;50.806;4.424;2024-02-14T02:20:02;9.70;99.90
23471;DHT22;11908;50.806;4.424;2024-02-14T02:22:28;9.70;99.90
23471;DHT22;11908;50.806;4.424;2024-02-14T02:25:01;9.60;99.90
23471;DHT22;11908;50.806;4.424;2024-02-14T02:27:27;9.60;99.90
23471;DHT22;11908;50.806;4.424;2024-02-14T02:29:52;9.60;99.90
23471;DHT22;11908;50.806;4.424;2024-02-14T02:32:18;9.60;99.90
23471;DHT22;11908;50.806;4.424;2024-02-14T02:34:44;9.60;99.90
23471;DHT22;11908;50.806;4.424;2024-02-14T02:37:11;9.50;99.90
23471;DHT22;11908;50.806;4.424;2024-02-14T02:39:37;9.60;99.90
23471;DHT22;11908;50.806;4.424;2024-02-14T02:42:03;9.60;99.90
23471;DHT22;11908;50.806;4.424;2024-02-14T02:44:29;9.60;99.90
23471;DHT22;11908;50.806;4.424;2024-02-14T02:46:55;9.60;99.90
23471;DHT22;11908;50.806;4.424;2024-02-14T02:49:21;9.60;99.90
23471;DHT22;11908;50.806;4.424;2024-02-14T02:51:47;9.70;99.90
23471;DHT22;11908;50.806;4.424;2024-02-14T02:54:14;9.70;99.90
23471;DHT22;11908;50.806;4.424;2024-02-14T02:56:39;9.70;99.90
23471;DHT22;11908;50.806;4.424;2024-02-14T02:59:08;9.80;99.90
23471;DHT22;11908;50.806;4.424;2024-02-14T03:01:37;9.80;99.90
23471;DHT22;11908;50.806;4.424;2024-02-14T03:04:03;9.80;99.90
23471;DHT22;11908;50.806;4.424;2024-02-14T03:06:28;9.80;99.90
23471;DHT22;11908;50.806;4.424;2024-02-14T03:08:54;9.90;99.90
23471;DHT22;11908;50.806;4.424;2024-02-14T03:11:22;9.90;99.90
23471;DHT22;11908;50.806;4.424;2024-02-14T03:13:48;9.90;99.90
23471;DHT22;11908;50.806;4.424;2024-02-14T03:16:15;10.00;99.90
23471;DHT22;11908;50.806;4.424;2024-02-14T03:18:43;9.90;99.90
23471;DHT22;11908;50.806;4.424;2024-02-14T03:21:09;10.00;99.90
23471;DHT22;11908;50.806;4.424;2024-02-14T03:23:35;10.00;99.90
23471;DHT22;11908;50.806;4.424;2024-02-14T03:26:00;10.00;99.90
23471;DHT22;11908;50.806;4.424;2024-02-14T03:28:26;9.90;99.90
23471;DHT22;11908;50.806;4.424;2024-02-14T03:30:53;9.90;99.90
23471;DHT22;11908;50.806;4.424;2024-02-14T03:33:19;9.90;99.90
23471;DHT22;11908;50.806;4.424;2024-02-14T03:35:44;9.90;99.90
23471;DHT22;11908;50.806;4.424;2024-02-14T03:38:10;9.90;99.90
23471;DHT22;11908;50.806;4.424;2024-02-14T03:40:36;9.80;99.90
23471;DHT22;11908;50.806;4.424;2024-02-14T03:43:04;9.80;99.90
23471;DHT22;11908;50.806;4.424;2024-02-14T03:45:30;9.80;99.90
23471;DHT22;11908;50.806;4.424;2024-02-14T03:47:56;9.80;99.90
23471;DHT22;11908;50.806;4.424;2024-02-14T03:50:22;9.90;99.90
23471;DHT22;11908;50.806;4.424;2024-02-14T03:52:48;9.90;99.90
23471;DHT22;11908;50.806;4.424;2024-02-14T03:55:14;9.90;99.90
23471;DHT22;11908;50.806;4.424;2024-02-14T03:57:42;9.80;99.90
23471;DHT22;11908;50.806;4.424;2024-02-14T04:00:11;9.80;99.90
23471;DHT22;11908;50.806;4.424;2024-02-14T04:02:37;9.90;99.90
23471;DHT22;11908;50.806;4.424;2024-02-14T04:05:03;9.90;99.90
23471;DHT22;11908;50.806;4.424;2024-02-14T04:07:29;9.90;99.90
23471;DHT22;11908;50.806;4.424;2024-02-14T04:09:55;9.90;99.90
23471;DHT22;11908;50.806;4.424;2024-02-14T04:12:21;9.90;99.90
23471;DHT22;11908;50.806;4.424;2024-02-14T04:14:47;9.90;99.90
23471;DHT22;11908;50.806;4.424;2024-02-14T04:17:13;9.90;99.90
23471;DHT22;11908;50.806;4.424;2024-02-14T04:19:40;9.90;99.90
23471;DHT22;11908;50.806;4.424;2024-02-14T04:22:06;10.00;99.90
23471;DHT22;11908;50.806;4.424;2024-02-14T04:24:36;10.00;99.90
23471;DHT22;11908;50.806;4.424;2024-02-14T04:27:02;10.00;99.90
23471;DHT22;11908;50.806;4.424;2024-02-14T04:29:29;10.00;99.90
23471;DHT22;11908;50.806;4.424;2024-02-14T04:31:56;10.00;99.90
23471;DHT22;11908;50.806;4.424;2024-02-14T04:34:22;10.00;99.90
23471;DHT22;11908;50.806;4.424;2024-02-14T04:36:48;10.00;99.90
23471;DHT22;11908;50.806;4.424;2024-02-14T04:39:13;10.10;99.90
23471;DHT22;11908;50.806;4.424;2024-02-14T04:41:39;10.10;99.90
23471;DHT22;11908;50.806;4.424;2024-02-14T04:44:05;10.10;99.90
23471;DHT22;11908;50.806;4.424;2024-02-14T04:46:32;10.10;99.90
23471;DHT22;11908;50.806;4.424;2024-02-14T04:48:58;10.10;99.90
23471;DHT22;11908;50.806;4.424;2024-02-14T04:51:24;10.10;99.90
23471;DHT22;11908;50.806;4.424;2024-02-14T04:53:49;10.10;99.90
23471;DHT22;11908;50.806;4.424;2024-02-14T04:56:15;10.20;99.90
23471;DHT22;11908;50.806;4.424;2024-02-14T04:58:41;10.20;99.90
23471;DHT22;11908;50.806;4.424;2024-02-14T05:01:07;10.10;99.90
23471;DHT22;11908;50.806;4.424;2024-02-14T05:03:33;10.10;99.90
23471;DHT22;11908;50.806;4.424;2024-02-14T05:05:59;10.10;99.90
23471;DHT22;11908;50.806;4.424;2024-02-14T05:08:28;10.10;99.90
23471;DHT22;11908;50.806;4.424;2024-02-14T05:10:54;10.20;99.90
23471;DHT22;11908;50.806;4.424;2024-02-14T05:13:19;10.20;99.90
23471;DHT22;11908;50.806;4.424;2024-02-14T05:15:45;10.30;99.90
23471;DHT22;11908;50.806;4.424;2024-02-14T05:18:10;10.20;99.90
23471;DHT22;11908;50.806;4.424;2024-02-14T05:20:36;10.20;99.90
23471;DHT22;11908;50.806;4.424;2024-02-14T05:23:03;10.20;99.90
23471;DHT22;11908;50.806;4.424;2024-02-14T05:25:29;10.20;99.90
23471;DHT22;11908;50.806;4.424;2024-02-14T05:27:55;10.20;99.90
23471;DHT22;11908;50.806;4.424;2024-02-14T05:30:21;10.20;99.90
23471;DHT22;11908;50.806;4.424;2024-02-14T05:32:46;10.20;99.90
23471;DHT22;11908;50.806;4.424;2024-02-14T05:35:12;10.20;99.90
23471;DHT22;11908;50.806;4.424;2024-02-14T05:37:38;10.30;99.90
23471;DHT22;11908;50.806;4.424;2024-02-14T05:40:04;10.30;99.90
23471;DHT22;11908;50.806;4.424;2024-02-14T05:42:32;10.40;99.90
23471;DHT22;11908;50.806;4.424;2024-02-14T05:45:00;10.30;99.90
23471;DHT22;11908;50.806;4.424;2024-02-14T05:47:26;10.30;99.90
23471;DHT22;11908;50.806;4.424;2024-02-14T05:49:52;10.30;99.90
23471;DHT22;11908;50.806;4.424;2024-02-14T05:52:17;10.20;99.90
23471;DHT22;11908;50.806;4.424;2024-02-14T05:54:44;10.30;99.90
23471;DHT22;11908;50.806;4.424;2024-02-14T05:57:09;10.30;99.90
23471;DHT22;11908;50.806;4.424;2024-02-14T05:59:35;10.20;99.90
23471;DHT22;11908;50.806;4.424;2024-02-14T06:02:01;10.20;99.90
23471;DHT22;11908;50.806;4.424;2024-02-14T06:04:28;10.30;99.90
23471;DHT22;11908;50.806;4.424;2024-02-14T06:06:54;10.30;99.90
23471;DHT22;11908;50.806;4.424;2024-02-14T06:09:19;10.30;99.90
23471;DHT22;11908;50.806;4.424;2024-02-14T06:11:45;10.30;99.90
23471;DHT22;11908;50.806;4.424;2024-02-14T06:14:11;10.30;99.90
23471;DHT22;11908;50.806;4.424;2024-02-14T06:16:37;10.30;99.90
23471;DHT22;11908;50.806;4.424;2024-02-14T06:19:04;10.40;99.90
23471;DHT22;11908;50.806;4.424;2024-02-14T06:21:30;10.40;99.90
23471;DHT22;11908;50.806;4.424;2024-02-14T06:23:56;10.50;99.90
23471;DHT22;11908;50.806;4.424;2024-02-14T06:26:24;10.40;99.90
23471;DHT22;11908;50.806;4.424;2024-02-14T06:28:50;10.40;99.90
23471;DHT22;11908;50.806;4.424;2024-02-14T06:31:22;10.40;99.90
23471;DHT22;11908;50.806;4.424;2024-02-14T06:33:48;10.50;99.90
23471;DHT22;11908;50.806;4.424;2024-02-14T06:36:14;10.50;99.90
23471;DHT22;11908;50.806;4.424;2024-02-14T06:38:39;10.50;99.90
23471;DHT22;11908;50.806;4.424;2024-02-14T06:41:06;10.50;99.90
23471;DHT22;11908;50.806;4.424;2024-02-14T06:43:31;10.50;99.90
23471;DHT22;11908;50.806;4.424;2024-02-14T06:45:57;10.50;99.90
23471;DHT22;11908;50.806;4.424;2024-02-14T06:48:23;10.40;99.90
23471;DHT22;11908;50.806;4.424;2024-02-14T06:50:53;10.50;99.90
23471;DHT22;11908;50.806;4.424;2024-02-14T06:53:18;10.50;99.90
23471;DHT22;11908;50.806;4.424;2024-02-14T06:55:44;10.50;99.90
23471;DHT22;11908;50.806;4.424;2024-02-14T06:58:10;10.50;99.90
23471;DHT22;11908;50.806;4.424;2024-02-14T07:00:36;10.50;99.90
23471;DHT22;11908;50.806;4.424;2024-02-14T07:03:02;10.60;99.90
23471;DHT22;11908;50.806;4.424;2024-02-14T07:05:28;10.60;99.90
23471;DHT22;11908;50.806;4.424;2024-02-14T07:07:55;10.60;99.90
23471;DHT22;11908;50.806;4.424;2024-02-14T07:10:21;10.60;99.90
23471;DHT22;11908;50.806;4.424;2024-02-14T07:12:46;10.60;99.90
23471;DHT22;11908;50.806;4.424;2024-02-14T07:15:12;10.70;99.90
23471;DHT22;11908;50.806;4.424;2024-02-14T07:17:38;10.80;99.90
23471;DHT22;11908;50.806;4.424;2024-02-14T07:20:05;10.80;99.90
23471;DHT22;11908;50.806;4.424;2024-02-14T07:22:31;10.80;99.90
23471;DHT22;11908;50.806;4.424;2024-02-14T07:24:57;10.80;99.90
23471;DHT22;11908;50.806;4.424;2024-02-14T07:27:23;10.70;99.90
23471;DHT22;11908;50.806;4.424;2024-02-14T07:29:49;10.70;99.90
23471;DHT22;11908;50.806;4.424;2024-02-14T07:32:15;10.80;99.90
23471;DHT22;11908;50.806;4.424;2024-02-14T07:34:42;10.80;99.90
23471;DHT22;11908;50.806;4.424;2024-02-14T07:37:07;10.70;99.90
23471;DHT22;11908;50.806;4.424;2024-02-14T07:39:33;10.80;99.90
23471;DHT22;11908;50.806;4.424;2024-02-14T07:42:01;10.80;99.90
23471;DHT22;11908;50.806;4.424;2024-02-14T07:44:27;10.80;99.90
23471;DHT22;11908;50.806;4.424;2024-02-14T07:46:53;10.80;99.90
23471;DHT22;11908;50.806;4.424;2024-02-14T07:49:19;10.80;99.90
23471;DHT22;11908;50.806;4.424;2024-02-14T07:51:47;10.90;99.90
23471;DHT22;11908;50.806;4.424;2024-02-14T07:54:13;10.90;99.90
23471;DHT22;11908;50.806;4.424;2024-02-14T07:56:39;11.00;99.90
23471;DHT22;11908;50.806;4.424;2024-02-14T07:59:05;11.00;99.90
23471;DHT22;11908;50.806;4.424;2024-02-14T08:01:31;11.00;99.90
23471;DHT22;11908;50.806;4.424;2024-02-14T08:03:58;11.00;99.90
23471;DHT22;11908;50.806;4.424;2024-02-14T08:06:24;11.10;99.90
23471;DHT22;11908;50.806;4.424;2024-02-14T08:08:49;11.10;99.90
23471;DHT22;11908;50.806;4.424;2024-02-14T08:11:19;11.10;99.90
23471;DHT22;11908;50.806;4.424;2024-02-14T08:13:45;11.10;99.90
23471;DHT22;11908;50.806;4.424;2024-02-14T08:16:11;11.10;99.90
23471;DHT22;11908;50.806;4.424;2024-02-14T08:18:37;11.10;99.90
23471;DHT22;11908;50.806;4.424;2024-02-14T08:21:05;11.00;99.90
23471;DHT22;11908;50.806;4.424;2024-02-14T08:23:32;11.10;99.90
23471;DHT22;11908;50.806;4.424;2024-02-14T08:25:58;11.10;99.90
23471;DHT22;11908;50.806;4.424;2024-02-14T08:28:23;11.10;99.90
23471;DHT22;11908;50.806;4.424;2024-02-14T08:30:49;11.10;99.90
23471;DHT22;11908;50.806;4.424;2024-02-14T08:33:15;11.10;99.90
23471;DHT22;11908;50.806;4.424;2024-02-14T08:35:41;11.10;99.90
23471;DHT22;11908;50.806;4.424;2024-02-14T08:38:07;11.10;99.90
23471;DHT22;11908;50.806;4.424;2024-02-14T08:40:33;11.20;99.90
23471;DHT22;11908;50.806;4.424;2024-02-14T08:42:59;11.30;99.90
23471;DHT22;11908;50.806;4.424;2024-02-14T08:45:25;11.30;99.90
23471;DHT22;11908;50.806;4.424;2024-02-14T08:47:54;11.20;99.90
23471;DHT22;11908;50.806;4.424;2024-02-14T08:50:20;11.20;99.90
23471;DHT22;11908;50.806;4.424;2024-02-14T08:52:45;11.10;99.90
23471;DHT22;11908;50.806;4.424;2024-02-14T08:55:11;11.10;99.90
23471;DHT22;11908;50.806;4.424;2024-02-14T08:57:42;11.10;99.90
23471;DHT22;11908;50.806;4.424;2024-02-14T09:00:08;11.20;99.90
23471;DHT22;11908;50.806;4.424;2024-02-14T09:02:36;11.20;99.90
23471;DHT22;11908;50.806;4.424;2024-02-14T09:05:02;11.10;99.90
23471;DHT22;11908;50.806;4.424;2024-02-14T09:07:30;11.20;99.90
23471;DHT22;11908;50.806;4.424;2024-02-14T09:09:57;11.30;99.90
23471;DHT22;11908;50.806;4.424;2024-02-14T09:12:22;11.40;99.90
23471;DHT22;11908;50.806;4.424;2024-02-14T09:14:49;11.40;99.90
23471;DHT22;11908;50.806;4.424;2024-02-14T09:17:14;11.50;99.90
23471;DHT22;11908;50.806;4.424;2024-02-14T09:19:40;11.40;99.90
23471;DHT22;11908;50.806;4.424;2024-02-14T09:22:06;11.50;99.90
23471;DHT22;11908;50.806;4.424;2024-02-14T09:24:32;11.50;99.90
23471;DHT22;11908;50.806;4.424;2024-02-14T09:26:58;11.40;99.90
23471;DHT22;11908;50.806;4.424;2024-02-14T09:29:24;11.60;99.90
23471;DHT22;11908;50.806;4.424;2024-02-14T09:31:51;11.50;99.90
23471;DHT22;11908;50.806;4.424;2024-02-14T09:34:17;11.60;99.90
23471;DHT22;11908;50.806;4.424;2024-02-14T09:36:45;11.50;99.90
23471;DHT22;11908;50.806;4.424;2024-02-14T09:39:14;11.50;99.90
23471;DHT22;11908;50.806;4.424;2024-02-14T09:41:44;11.40;99.90
23471;DHT22;11908;50.806;4.424;2024-02-14T09:44:12;11.40;99.90
23471;DHT22;11908;50.806;4.424;2024-02-14T09:46:38;11.50;99.90
23471;DHT22;11908;50.806;4.424;2024-02-14T09:49:06;11.60;99.90
23471;DHT22;11908;50.806;4.424;2024-02-14T09:51:32;11.60;99.90
23471;DHT22;11908;50.806;4.424;2024-02-14T09:53:59;11.70;99.90
23471;DHT22;11908;50.806;4.424;2024-02-14T09:56:25;11.70;99.90
23471;DHT22;11908;50.806;4.424;2024-02-14T09:58:53;11.60;99.90
23471;DHT22;11908;50.806;4.424;2024-02-14T10:01:23;11.60;99.90
23471;DHT22;11908;50.806;4.424;2024-02-14T10:03:53;11.60;99.90
23471;DHT22;11908;50.806;4.424;2024-02-14T10:06:20;11.70;99.90
23471;DHT22;11908;50.806;4.424;2024-02-14T10:08:50;11.70;99.90
23471;DHT22;11908;50.806;4.424;2024-02-14T10:11:19;11.70;99.90
23471;DHT22;11908;50.806;4.424;2024-02-14T10:13:47;11.80;99.90
23471;DHT22;11908;50.806;4.424;2024-02-14T10:16:16;11.80;99.90
23471;DHT22;11908;50.806;4.424;2024-02-14T10:18:44;11.70;99.90
23471;DHT22;11908;50.806;4.424;2024-02-14T10:21:15;11.70;99.90
23471;DHT22;11908;50.806;4.424;2024-02-14T10:23:43;11.80;99.90
23471;DHT22;11908;50.806;4.424;2024-02-14T10:26:09;11.70;99.90
23471;DHT22;11908;50.806;4.424;2024-02-14T10:28:35;11.80;99.90
23471;DHT22;11908;50.806;4.424;2024-02-14T10:31:01;11.80;99.90
23471;DHT22;11908;50.806;4.424;2024-02-14T10:33:29;11.90;99.90
23471;DHT22;11908;50.806;4.424;2024-02-14T10:35:57;11.90;99.90
23471;DHT22;11908;50.806;4.424;2024-02-14T10:38:23;11.90;99.90
23471;DHT22;11908;50.806;4.424;2024-02-14T10:40:49;11.90;99.90
23471;DHT22;11908;50.806;4.424;2024-02-14T10:43:17;12.00;99.90
23471;DHT22;11908;50.806;4.424;2024-02-14T10:45:42;11.90;99.90
23471;DHT22;11908;50.806;4.424;2024-02-14T10:48:12;11.80;99.90
23471;DHT22;11908;50.806;4.424;2024-02-14T10:50:43;11.80;99.90
23471;DHT22;11908;50.806;4.424;2024-02-14T10:53:14;12.00;99.90
23471;DHT22;11908;50.806;4.424;2024-02-14T10:55:47;12.00;99.90
23471;DHT22;11908;50.806;4.424;2024-02-14T10:58:16;11.90;99.90
23471;DHT22;11908;50.806;4.424;2024-02-14T11:00:42;11.90;99.90
23471;DHT22;11908;50.806;4.424;2024-02-14T11:03:09;12.00;99.90
23471;DHT22;11908;50.806;4.424;2024-02-14T11:05:49;12.00;99.90
23471;DHT22;11908;50.806;4.424;2024-02-14T11:08:24;12.00;99.90
23471;DHT22;11908;50.806;4.424;2024-02-14T11:10:58;12.10;99.90
23471;DHT22;11908;50.806;4.424;2024-02-14T11:13:29;12.20;99.90
23471;DHT22;11908;50.806;4.424;2024-02-14T11:15:57;12.20;99.90
23471;DHT22;11908;50.806;4.424;2024-02-14T11:18:26;12.20;99.90
23471;DHT22;11908;50.806;4.424;2024-02-14T11:20:52;12.10;99.90
23471;DHT22;11908;50.806;4.424;2024-02-14T11:23:22;12.10;99.90
23471;DHT22;11908;50.806;4.424;2024-02-14T11:25:47;12.20;99.90
23471;DHT22;11908;50.806;4.424;2024-02-14T11:28:25;12.20;99.90
23471;DHT22;11908;50.806;4.424;2024-02-14T11:31:00;12.20;99.90
23471;DHT22;11908;50.806;4.424;2024-02-14T11:33:26;12.30;99.90
23471;DHT22;11908;50.806;4.424;2024-02-14T11:35:53;12.30;99.90
23471;DHT22;11908;50.806;4.424;2024-02-14T11:38:20;12.30;99.90
23471;DHT22;11908;50.806;4.424;2024-02-14T11:40:46;12.30;99.90
23471;DHT22;11908;50.806;4.424;2024-02-14T11:43:14;12.30;99.90
23471;DHT22;11908;50.806;4.424;2024-02-14T11:45:41;12.30;99.90
23471;DHT22;11908;50.806;4.424;2024-02-14T11:48:11;12.30;99.90
23471;DHT22;11908;50.806;4.424;2024-02-14T11:50:39;12.40;99.90
23471;DHT22;11908;50.806;4.424;2024-02-14T11:53:05;12.30;99.90
23471;DHT22;11908;50.806;4.424;2024-02-14T11:55:34;12.20;99.90
23471;DHT22;11908;50.806;4.424;2024-02-14T11:58:02;12.20;99.90
23471;DHT22;11908;50.806;4.424;2024-02-14T12:00:28;12.20;99.90
23471;DHT22;11908;50.806;4.424;2024-02-14T12:02:54;12.30;99.90
23471;DHT22;11908;50.806;4.424;2024-02-14T12:05:20;12.40;99.90
23471;DHT22;11908;50.806;4.424;2024-02-14T12:07:46;12.40;99.90
23471;DHT22;11908;50.806;4.424;2024-02-14T12:10:12;12.50;99.90
23471;DHT22;11908;50.806;4.424;2024-02-14T12:12:38;12.50;99.90
23471;DHT22;11908;50.806;4.424;2024-02-14T12:15:04;12.50;99.90
23471;DHT22;11908;50.806;4.424;2024-02-14T12:17:32;12.50;99.90
23471;DHT22;11908;50.806;4.424;2024-02-14T12:20:11;12.50;99.90
23471;DHT22;11908;50.806;4.424;2024-02-14T12:22:40;12.60;99.90
23471;DHT22;11908;50.806;4.424;2024-02-14T12:25:07;12.50;99.90
23471;DHT22;11908;50.806;4.424;2024-02-14T12:27:36;12.50;99.90
23471;DHT22;11908;50.806;4.424;2024-02-14T12:30:06;12.50;99.90
23471;DHT22;11908;50.806;4.424;2024-02-14T12:32:32;12.60;99.90
23471;DHT22;11908;50.806;4.424;2024-02-14T12:35:01;12.60;99.90
23471;DHT22;11908;50.806;4.424;2024-02-14T12:37:27;12.70;99.90
23471;DHT22;11908;50.806;4.424;2024-02-14T12:39:53;12.60;99.90
23471;DHT22;11908;50.806;4.424;2024-02-14T12:42:19;12.60;99.90
23471;DHT22;11908;50.806;4.424;2024-02-14T12:44:56;12.60;99.90
23471;DHT22;11908;50.806;4.424;2024-02-14T12:47:22;12.60;99.90
23471;DHT22;11908;50.806;4.424;2024-02-14T12:49:49;12.60;99.90
23471;DHT22;11908;50.806;4.424;2024-02-14T12:52:15;12.60;99.90
23471;DHT22;11908;50.806;4.424;2024-02-14T12:54:41;12.60;99.90
23471;DHT22;11908;50.806;4.424;2024-02-14T12:57:07;12.70;99.90
23471;DHT22;11908;50.806;4.424;2024-02-14T12:59:32;12.70;99.90
23471;DHT22;11908;50.806;4.424;2024-02-14T13:01:58;12.70;99.90
23471;DHT22;11908;50.806;4.424;2024-02-14T13:04:24;12.80;99.90
23471;DHT22;11908;50.806;4.424;2024-02-14T13:06:50;12.80;99.90
23471;DHT22;11908;50.806;4.424;2024-02-14T13:09:15;12.80;99.90
23471;DHT22;11908;50.806;4.424;2024-02-14T13:11:41;12.80;99.90
23471;DHT22;11908;50.806;4.424;2024-02-14T13:14:08;12.80;99.90
23471;DHT22;11908;50.806;4.424;2024-02-14T13:16:34;12.80;99.90
23471;DHT22;11908;50.806;4.424;2024-02-14T13:19:00;12.90;99.90
23471;DHT22;11908;50.806;4.424;2024-02-14T13:21:26;12.90;99.90
23471;DHT22;11908;50.806;4.424;2024-02-14T13:23:52;12.80;99.90
23471;DHT22;11908;50.806;4.424;2024-02-14T13:26:17;12.80;99.90
23471;DHT22;11908;50.806;4.424;2024-02-14T13:28:43;12.80;99.90
23471;DHT22;11908;50.806;4.424;2024-02-14T13:31:09;12.70;99.90
23471;DHT22;11908;50.806;4.424;2024-02-14T13:33:35;12.70;99.90
23471;DHT22;11908;50.806;4.424;2024-02-14T13:36:01;12.70;99.90
23471;DHT22;11908;50.806;4.424;2024-02-14T13:38:27;12.80;99.90
23471;DHT22;11908;50.806;4.424;2024-02-14T13:40:54;12.70;99.90
23471;DHT22;11908;50.806;4.424;2024-02-14T13:43:20;12.70;99.90
23471;DHT22;11908;50.806;4.424;2024-02-14T13:45:46;12.70;99.90
23471;DHT22;11908;50.806;4.424;2024-02-14T13:48:13;12.70;99.90
23471;DHT22;11908;50.806;4.424;2024-02-14T13:50:39;12.70;99.90
23471;DHT22;11908;50.806;4.424;2024-02-14T13:53:06;12.70;99.90
23471;DHT22;11908;50.806;4.424;2024-02-14T13:55:32;12.70;99.90
23471;DHT22;11908;50.806;4.424;2024-02-14T13:57:58;12.80;99.90
23471;DHT22;11908;50.806;4.424;2024-02-14T14:00:23;13.00;99.90
23471;DHT22;11908;50.806;4.424;2024-02-14T14:02:49;12.90;99.90
23471;DHT22;11908;50.806;4.424;2024-02-14T14:05:15;12.90;99.90
23471;DHT22;11908;50.806;4.424;2024-02-14T14:07:41;12.90;99.90
23471;DHT22;11908;50.806;4.424;2024-02-14T14:10:08;12.90;99.90
23471;DHT22;11908;50.806;4.424;2024-02-14T14:12:35;12.90;99.90
23471;DHT22;11908;50.806;4.424;2024-02-14T14:15:01;12.80;99.90
23471;DHT22;11908;50.806;4.424;2024-02-14T14:17:28;12.90;99.90
23471;DHT22;11908;50.806;4.424;2024-02-14T14:19:54;12.90;99.90
23471;DHT22;11908;50.806;4.424;2024-02-14T14:22:20;12.90;99.90
23471;DHT22;11908;50.806;4.424;2024-02-14T14:24:46;12.90;99.90
23471;DHT22;11908;50.806;4.424;2024-02-14T14:27:12;12.90;99.90
23471;DHT22;11908;50.806;4.424;2024-02-14T14:29:43;12.90;99.90
23471;DHT22;11908;50.806;4.424;2024-02-14T14:32:09;13.00;99.90
23471;DHT22;11908;50.806;4.424;2024-02-14T14:34:35;13.00;99.90
23471;DHT22;11908;50.806;4.424;2024-02-14T14:37:01;13.00;99.90
23471;DHT22;11908;50.806;4.424;2024-02-14T14:39:27;13.10;99.90
23471;DHT22;11908;50.806;4.424;2024-02-14T14:41:53;13.10;99.90
23471;DHT22;11908;50.806;4.424;2024-02-14T14:44:26;13.10;99.90
23471;DHT22;11908;50.806;4.424;2024-02-14T14:46:53;13.00;99.90
23471;DHT22;11908;50.806;4.424;2024-02-14T14:49:19;13.10;99.90
23471;DHT22;11908;50.806;4.424;2024-02-14T14:51:45;13.10;99.90
23471;DHT22;11908;50.806;4.424;2024-02-14T14:54:10;13.10;99.90
23471;DHT22;11908;50.806;4.424;2024-02-14T14:56:36;13.10;99.90
23471;DHT22;11908;50.806;4.424;2024-02-14T14:59:02;13.10;99.90
23471;DHT22;11908;50.806;4.424;2024-02-14T15:01:34;13.20;99.90
23471;DHT22;11908;50.806;4.424;2024-02-14T15:04:00;13.10;99.90
23471;DHT22;11908;50.806;4.424;2024-02-14T15:06:26;13.20;99.90
23471;DHT22;11908;50.806;4.424;2024-02-14T15:08:52;13.10;99.90
23471;DHT22;11908;50.806;4.424;2024-02-14T15:11:18;13.20;99.90
23471;DHT22;11908;50.806;4.424;2024-02-14T15:13:48;13.20;99.90
23471;DHT22;11908;50.806;4.424;2024-02-14T15:16:14;13.10;99.90
23471;DHT22;11908;50.806;4.424;2024-02-14T15:18:40;13.10;99.90
23471;DHT22;11908;50.806;4.424;2024-02-14T15:21:11;13.10;99.90
23471;DHT22;11908;50.806;4.424;2024-02-14T15:23:37;13.10;99.90
23471;DHT22;11908;50.806;4.424;2024-02-14T15:26:03;13.10;99.90
23471;DHT22;11908;50.806;4.424;2024-02-14T15:28:34;13.00;99.90
23471;DHT22;11908;50.806;4.424;2024-02-14T15:31:06;13.10;99.90